sensor_id;sensor_type;location;lat;lon;timestamp;P1;durP1;ratioP1;P2;durP2;ratioP2
68176;SDS011;56478;50.982;7.032;2024-03-08T00:01:09;20.77;;;12.70;;
68176;SDS011;56478;50.982;7.032;2024-03-08T00:03:35;20.58;;;13.38;;
68176;SDS011;56478;50.982;7.032;2024-03-08T00:06:01;24.75;;;13.82;;
68176;SDS011;56478;50.982;7.032;2024-03-08T00:08:26;22.08;;;12.95;;
68176;SDS011;56478;50.982;7.032;2024-03-08T00:10:52;19.23;;;13.48;;
68176;SDS011;56478;50.982;7.032;2024-03-08T00:13:17;18.70;;;12.43;;
68176;SDS011;56478;50.982;7.032;2024-03-08T00:15:43;21.05;;;13.20;;
68176;SDS011;56478;50.982;7.032;2024-03-08T00:18:09;19.10;;;12.93;;
68176;SDS011;56478;50.982;7.032;2024-03-08T00:20:35;26.40;;;13.30;;
68176;SDS011;56478;50.982;7.032;2024-03-08T00:23:01;21.20;;;12.75;;
68176;SDS011;56478;50.982;7.032;2024-03-08T00:25:26;23.58;;;12.73;;
68176;SDS011;56478;50.982;7.032;2024-03-08T00:27:52;20.00;;;12.95;;
68176;SDS011;56478;50.982;7.032;2024-03-08T00:30:21;20.88;;;13.35;;
68176;SDS011;56478;50.982;7.032;2024-03-08T00:32:48;20.85;;;13.73;;
68176;SDS011;56478;50.982;7.032;2024-03-08T00:35:14;19.90;;;13.32;;
68176;SDS011;56478;50.982;7.032;2024-03-08T00:37:40;18.90;;;13.32;;
68176;SDS011;56478;50.982;7.032;2024-03-08T00:40:07;20.42;;;13.10;;
68176;SDS011;56478;50.982;7.032;2024-03-08T00:42:34;21.25;;;13.52;;
68176;SDS011;56478;50.982;7.032;2024-03-08T00:45:00;19.95;;;13.27;;
68176;SDS011;56478;50.982;7.032;2024-03-08T00:47:26;19.08;;;12.55;;
68176;SDS011;56478;50.982;7.032;2024-03-08T00:49:52;22.10;;;13.68;;
68176;SDS011;56478;50.982;7.032;2024-03-08T00:52:18;22.45;;;13.25;;
68176;SDS011;56478;50.982;7.032;2024-03-08T00:54:44;23.10;;;13.57;;
68176;SDS011;56478;50.982;7.032;2024-03-08T00:57:10;21.70;;;13.25;;
68176;SDS011;56478;50.982;7.032;2024-03-08T00:59:37;19.98;;;12.95;;
68176;SDS011;56478;50.982;7.032;2024-03-08T01:02:03;21.15;;;13.02;;
68176;SDS011;56478;50.982;7.032;2024-03-08T01:04:29;20.10;;;12.30;;
68176;SDS011;56478;50.982;7.032;2024-03-08T01:06:55;19.80;;;12.88;;
68176;SDS011;56478;50.982;7.032;2024-03-08T01:09:22;20.88;;;13.68;;
68176;SDS011;56478;50.982;7.032;2024-03-08T01:11:48;22.27;;;13.45;;
68176;SDS011;56478;50.982;7.032;2024-03-08T01:14:14;19.77;;;12.60;;
68176;SDS011;56478;50.982;7.032;2024-03-08T01:16:40;19.45;;;12.18;;
68176;SDS011;56478;50.982;7.032;2024-03-08T01:19:06;19.63;;;12.93;;
68176;SDS011;56478;50.982;7.032;2024-03-08T01:21:32;21.02;;;13.57;;
68176;SDS011;56478;50.982;7.032;2024-03-08T01:23:57;20.92;;;12.63;;
68176;SDS011;56478;50.982;7.032;2024-03-08T01:26:23;21.25;;;13.43;;
68176;SDS011;56478;50.982;7.032;2024-03-08T01:28:49;19.95;;;12.73;;
68176;SDS011;56478;50.982;7.032;2024-03-08T01:31:15;21.33;;;13.25;;
68176;SDS011;56478;50.982;7.032;2024-03-08T01:33:41;20.35;;;12.82;;
68176;SDS011;56478;50.982;7.032;2024-03-08T01:36:07;22.40;;;13.50;;
68176;SDS011;56478;50.982;7.032;2024-03-08T01:38:32;21.58;;;13.25;;
68176;SDS011;56478;50.982;7.032;2024-03-08T01:41:01;19.98;;;13.65;;
68176;SDS011;56478;50.982;7.032;2024-03-08T01:43:27;21.08;;;13.05;;
68176;SDS011;56478;50.982;7.032;2024-03-08T01:45:54;24.70;;;13.45;;
68176;SDS011;56478;50.982;7.032;2024-03-08T01:48:21;21.17;;;13.73;;
68176;SDS011;56478;50.982;7.032;2024-03-08T01:50:49;20.45;;;12.68;;
68176;SDS011;56478;50.982;7.032;2024-03-08T01:53:15;22.00;;;12.65;;
68176;SDS011;56478;50.982;7.032;2024-03-08T01:55:43;18.08;;;11.65;;
68176;SDS011;56478;50.982;7.032;2024-03-08T01:58:11;19.88;;;12.60;;
68176;SDS011;56478;50.982;7.032;2024-03-08T02:00:40;21.20;;;12.90;;
68176;SDS011;56478;50.982;7.032;2024-03-08T02:03:08;22.17;;;12.98;;
68176;SDS011;56478;50.982;7.032;2024-03-08T02:05:34;20.92;;;12.85;;
68176;SDS011;56478;50.982;7.032;2024-03-08T02:08:01;22.08;;;12.73;;
68176;SDS011;56478;50.982;7.032;2024-03-08T02:10:28;20.45;;;13.20;;
68176;SDS011;56478;50.982;7.032;2024-03-08T02:12:53;17.40;;;12.38;;
68176;SDS011;56478;50.982;7.032;2024-03-08T02:15:20;19.23;;;12.63;;
68176;SDS011;56478;50.982;7.032;2024-03-08T02:17:46;20.30;;;13.02;;
68176;SDS011;56478;50.982;7.032;2024-03-08T02:20:12;21.65;;;13.25;;
68176;SDS011;56478;50.982;7.032;2024-03-08T02:22:38;22.08;;;12.93;;
68176;SDS011;56478;50.982;7.032;2024-03-08T02:25:04;19.30;;;12.68;;
68176;SDS011;56478;50.982;7.032;2024-03-08T02:27:30;21.95;;;14.13;;
68176;SDS011;56478;50.982;7.032;2024-03-08T02:29:57;21.17;;;11.10;;
68176;SDS011;56478;50.982;7.032;2024-03-08T02:32:23;19.15;;;11.52;;
68176;SDS011;56478;50.982;7.032;2024-03-08T02:34:49;18.13;;;11.38;;
68176;SDS011;56478;50.982;7.032;2024-03-08T02:37:16;18.77;;;12.52;;
68176;SDS011;56478;50.982;7.032;2024-03-08T02:39:42;20.60;;;13.05;;
68176;SDS011;56478;50.982;7.032;2024-03-08T02:42:08;20.77;;;13.35;;
68176;SDS011;56478;50.982;7.032;2024-03-08T02:44:34;21.15;;;13.52;;
68176;SDS011;56478;50.982;7.032;2024-03-08T02:47:00;21.25;;;13.82;;
68176;SDS011;56478;50.982;7.032;2024-03-08T02:49:26;22.75;;;13.95;;
68176;SDS011;56478;50.982;7.032;2024-03-08T02:51:52;22.58;;;13.05;;
68176;SDS011;56478;50.982;7.032;2024-03-08T02:54:19;19.40;;;13.00;;
68176;SDS011;56478;50.982;7.032;2024-03-08T02:56:46;23.98;;;13.75;;
68176;SDS011;56478;50.982;7.032;2024-03-08T02:59:12;22.80;;;13.00;;
68176;SDS011;56478;50.982;7.032;2024-03-08T03:01:38;20.10;;;13.02;;
68176;SDS011;56478;50.982;7.032;2024-03-08T03:04:04;20.60;;;13.00;;
68176;SDS011;56478;50.982;7.032;2024-03-08T03:06:30;20.33;;;12.77;;
68176;SDS011;56478;50.982;7.032;2024-03-08T03:08:56;20.40;;;13.15;;
68176;SDS011;56478;50.982;7.032;2024-03-08T03:11:23;22.13;;;13.05;;
68176;SDS011;56478;50.982;7.032;2024-03-08T03:13:49;20.20;;;12.63;;
68176;SDS011;56478;50.982;7.032;2024-03-08T03:16:20;23.92;;;13.93;;
68176;SDS011;56478;50.982;7.032;2024-03-08T03:18:46;24.77;;;13.13;;
68176;SDS011;56478;50.982;7.032;2024-03-08T03:21:13;22.05;;;12.55;;
68176;SDS011;56478;50.982;7.032;2024-03-08T03:23:39;22.27;;;12.85;;
68176;SDS011;56478;50.982;7.032;2024-03-08T03:26:05;22.67;;;12.95;;
68176;SDS011;56478;50.982;7.032;2024-03-08T03:28:37;21.60;;;12.68;;
68176;SDS011;56478;50.982;7.032;2024-03-08T03:31:06;23.38;;;13.63;;
68176;SDS011;56478;50.982;7.032;2024-03-08T03:33:32;22.77;;;13.93;;
68176;SDS011;56478;50.982;7.032;2024-03-08T03:35:59;23.05;;;13.90;;
68176;SDS011;56478;50.982;7.032;2024-03-08T03:38:26;19.48;;;12.32;;
68176;SDS011;56478;50.982;7.032;2024-03-08T03:40:53;21.92;;;13.30;;
68176;SDS011;56478;50.982;7.032;2024-03-08T03:45:48;23.35;;;12.90;;
68176;SDS011;56478;50.982;7.032;2024-03-08T03:48:14;23.80;;;13.63;;
68176;SDS011;56478;50.982;7.032;2024-03-08T03:50:40;23.13;;;13.63;;
68176;SDS011;56478;50.982;7.032;2024-03-08T03:53:06;20.95;;;13.20;;
68176;SDS011;56478;50.982;7.032;2024-03-08T03:55:35;21.65;;;12.82;;
68176;SDS011;56478;50.982;7.032;2024-03-08T03:58:04;17.88;;;12.18;;
68176;SDS011;56478;50.982;7.032;2024-03-08T04:00:29;22.55;;;12.73;;
68176;SDS011;56478;50.982;7.032;2024-03-08T04:02:55;22.65;;;12.65;;
68176;SDS011;56478;50.982;7.032;2024-03-08T04:05:24;25.75;;;14.20;;
68176;SDS011;56478;50.982;7.032;2024-03-08T04:07:50;22.13;;;13.55;;
68176;SDS011;56478;50.982;7.032;2024-03-08T04:10:16;22.65;;;13.23;;
68176;SDS011;56478;50.982;7.032;2024-03-08T04:12:41;19.65;;;12.18;;
68176;SDS011;56478;50.982;7.032;2024-03-08T04:15:08;19.77;;;13.15;;
68176;SDS011;56478;50.982;7.032;2024-03-08T04:17:36;21.63;;;12.48;;
68176;SDS011;56478;50.982;7.032;2024-03-08T04:20:04;19.85;;;12.18;;
68176;SDS011;56478;50.982;7.032;2024-03-08T04:22:37;23.88;;;13.88;;
68176;SDS011;56478;50.982;7.032;2024-03-08T04:25:04;21.83;;;12.60;;
68176;SDS011;56478;50.982;7.032;2024-03-08T04:27:32;22.15;;;12.75;;
68176;SDS011;56478;50.982;7.032;2024-03-08T04:29:58;23.02;;;12.27;;
68176;SDS011;56478;50.982;7.032;2024-03-08T04:32:24;23.08;;;12.13;;
68176;SDS011;56478;50.982;7.032;2024-03-08T04:34:50;20.13;;;12.57;;
68176;SDS011;56478;50.982;7.032;2024-03-08T04:37:16;22.38;;;13.07;;
68176;SDS011;56478;50.982;7.032;2024-03-08T04:39:47;19.95;;;13.00;;
68176;SDS011;56478;50.982;7.032;2024-03-08T04:42:13;20.58;;;12.85;;
68176;SDS011;56478;50.982;7.032;2024-03-08T04:44:41;23.10;;;12.82;;
68176;SDS011;56478;50.982;7.032;2024-03-08T04:47:06;22.67;;;13.43;;
68176;SDS011;56478;50.982;7.032;2024-03-08T04:49:32;21.55;;;12.98;;
68176;SDS011;56478;50.982;7.032;2024-03-08T04:54:28;16.92;;;9.27;;
68176;SDS011;56478;50.982;7.032;2024-03-08T04:56:54;21.95;;;12.15;;
68176;SDS011;56478;50.982;7.032;2024-03-08T04:59:19;21.67;;;12.23;;
68176;SDS011;56478;50.982;7.032;2024-03-08T05:01:45;23.15;;;12.75;;
68176;SDS011;56478;50.982;7.032;2024-03-08T05:04:11;24.83;;;13.35;;
68176;SDS011;56478;50.982;7.032;2024-03-08T05:06:37;23.02;;;13.48;;
68176;SDS011;56478;50.982;7.032;2024-03-08T05:09:02;24.33;;;13.55;;
68176;SDS011;56478;50.982;7.032;2024-03-08T05:11:47;20.95;;;12.27;;
68176;SDS011;56478;50.982;7.032;2024-03-08T05:14:13;33.92;;;13.27;;
68176;SDS011;56478;50.982;7.032;2024-03-08T05:16:47;22.10;;;12.73;;
68176;SDS011;56478;50.982;7.032;2024-03-08T05:19:14;22.23;;;12.82;;
68176;SDS011;56478;50.982;7.032;2024-03-08T05:21:42;25.52;;;12.52;;
68176;SDS011;56478;50.982;7.032;2024-03-08T05:26:36;23.92;;;13.07;;
68176;SDS011;56478;50.982;7.032;2024-03-08T05:29:03;21.10;;;13.02;;
68176;SDS011;56478;50.982;7.032;2024-03-08T05:31:29;22.10;;;13.45;;
68176;SDS011;56478;50.982;7.032;2024-03-08T05:34:01;21.35;;;12.65;;
68176;SDS011;56478;50.982;7.032;2024-03-08T05:36:27;23.73;;;13.00;;
68176;SDS011;56478;50.982;7.032;2024-03-08T05:38:53;24.70;;;14.05;;
68176;SDS011;56478;50.982;7.032;2024-03-08T05:41:19;24.67;;;13.75;;
68176;SDS011;56478;50.982;7.032;2024-03-08T05:43:45;23.30;;;13.13;;
68176;SDS011;56478;50.982;7.032;2024-03-08T05:46:11;22.67;;;13.80;;
68176;SDS011;56478;50.982;7.032;2024-03-08T05:51:06;22.48;;;12.18;;
68176;SDS011;56478;50.982;7.032;2024-03-08T05:53:31;21.40;;;12.38;;
68176;SDS011;56478;50.982;7.032;2024-03-08T05:55:58;24.05;;;13.00;;
68176;SDS011;56478;50.982;7.032;2024-03-08T05:58:24;22.58;;;13.43;;
68176;SDS011;56478;50.982;7.032;2024-03-08T06:00:50;24.75;;;13.90;;
68176;SDS011;56478;50.982;7.032;2024-03-08T06:03:15;25.67;;;13.70;;
68176;SDS011;56478;50.982;7.032;2024-03-08T06:05:41;21.17;;;13.15;;
68176;SDS011;56478;50.982;7.032;2024-03-08T06:08:07;21.52;;;12.43;;
68176;SDS011;56478;50.982;7.032;2024-03-08T06:10:33;25.73;;;12.07;;
68176;SDS011;56478;50.982;7.032;2024-03-08T06:12:59;25.02;;;14.38;;
68176;SDS011;56478;50.982;7.032;2024-03-08T06:15:26;21.75;;;13.15;;
68176;SDS011;56478;50.982;7.032;2024-03-08T06:17:52;26.15;;;13.65;;
68176;SDS011;56478;50.982;7.032;2024-03-08T06:20:18;22.25;;;12.48;;
68176;SDS011;56478;50.982;7.032;2024-03-08T06:22:44;22.98;;;13.07;;
68176;SDS011;56478;50.982;7.032;2024-03-08T06:25:13;28.02;;;14.13;;
68176;SDS011;56478;50.982;7.032;2024-03-08T06:27:41;25.60;;;13.73;;
68176;SDS011;56478;50.982;7.032;2024-03-08T06:30:08;20.25;;;12.50;;
68176;SDS011;56478;50.982;7.032;2024-03-08T06:32:38;23.25;;;13.82;;
68176;SDS011;56478;50.982;7.032;2024-03-08T06:37:34;22.50;;;11.93;;
68176;SDS011;56478;50.982;7.032;2024-03-08T06:40:00;23.90;;;12.93;;
68176;SDS011;56478;50.982;7.032;2024-03-08T06:42:28;24.05;;;13.43;;
68176;SDS011;56478;50.982;7.032;2024-03-08T06:44:55;24.02;;;13.45;;
68176;SDS011;56478;50.982;7.032;2024-03-08T06:47:25;21.25;;;13.18;;
68176;SDS011;56478;50.982;7.032;2024-03-08T06:49:51;21.83;;;12.40;;
68176;SDS011;56478;50.982;7.032;2024-03-08T06:52:17;14.68;;;8.43;;
68176;SDS011;56478;50.982;7.032;2024-03-08T06:54:43;23.27;;;12.07;;
68176;SDS011;56478;50.982;7.032;2024-03-08T06:57:09;28.02;;;15.40;;
68176;SDS011;56478;50.982;7.032;2024-03-08T06:59:35;24.63;;;15.05;;
68176;SDS011;56478;50.982;7.032;2024-03-08T07:02:02;25.30;;;14.18;;
68176;SDS011;56478;50.982;7.032;2024-03-08T07:04:29;24.95;;;13.90;;
68176;SDS011;56478;50.982;7.032;2024-03-08T07:06:56;17.27;;;11.30;;
68176;SDS011;56478;50.982;7.032;2024-03-08T07:09:23;22.33;;;13.98;;
68176;SDS011;56478;50.982;7.032;2024-03-08T07:14:23;23.40;;;13.30;;
68176;SDS011;56478;50.982;7.032;2024-03-08T07:16:50;21.23;;;13.35;;
68176;SDS011;56478;50.982;7.032;2024-03-08T07:19:16;21.63;;;13.93;;
68176;SDS011;56478;50.982;7.032;2024-03-08T07:21:43;23.13;;;12.35;;
68176;SDS011;56478;50.982;7.032;2024-03-08T07:24:09;24.33;;;14.13;;
68176;SDS011;56478;50.982;7.032;2024-03-08T07:26:42;22.92;;;14.00;;
68176;SDS011;56478;50.982;7.032;2024-03-08T07:29:08;19.98;;;13.20;;
68176;SDS011;56478;50.982;7.032;2024-03-08T07:31:34;22.02;;;14.45;;
68176;SDS011;56478;50.982;7.032;2024-03-08T07:34:20;22.00;;;13.70;;
68176;SDS011;56478;50.982;7.032;2024-03-08T07:36:46;16.00;;;10.25;;
68176;SDS011;56478;50.982;7.032;2024-03-08T07:39:12;18.98;;;13.27;;
68176;SDS011;56478;50.982;7.032;2024-03-08T07:41:39;23.20;;;14.13;;
68176;SDS011;56478;50.982;7.032;2024-03-08T07:44:07;20.80;;;14.30;;
68176;SDS011;56478;50.982;7.032;2024-03-08T07:46:34;20.55;;;13.90;;
68176;SDS011;56478;50.982;7.032;2024-03-08T07:49:00;20.95;;;12.45;;
68176;SDS011;56478;50.982;7.032;2024-03-08T07:51:26;20.23;;;11.07;;
68176;SDS011;56478;50.982;7.032;2024-03-08T07:53:51;18.63;;;13.15;;
68176;SDS011;56478;50.982;7.032;2024-03-08T07:56:18;19.48;;;14.07;;
68176;SDS011;56478;50.982;7.032;2024-03-08T07:58:44;20.35;;;14.07;;
68176;SDS011;56478;50.982;7.032;2024-03-08T08:01:28;19.63;;;13.27;;
68176;SDS011;56478;50.982;7.032;2024-03-08T08:03:55;17.83;;;13.82;;
68176;SDS011;56478;50.982;7.032;2024-03-08T08:06:21;20.02;;;13.50;;
68176;SDS011;56478;50.982;7.032;2024-03-08T08:08:47;18.70;;;14.25;;
68176;SDS011;56478;50.982;7.032;2024-03-08T08:11:13;18.13;;;13.95;;
68176;SDS011;56478;50.982;7.032;2024-03-08T08:13:42;16.40;;;13.27;;
68176;SDS011;56478;50.982;7.032;2024-03-08T08:16:08;18.90;;;13.73;;
68176;SDS011;56478;50.982;7.032;2024-03-08T08:18:35;20.58;;;13.73;;
68176;SDS011;56478;50.982;7.032;2024-03-08T08:21:04;17.65;;;12.70;;
68176;SDS011;56478;50.982;7.032;2024-03-08T08:23:32;19.52;;;13.57;;
68176;SDS011;56478;50.982;7.032;2024-03-08T08:25:58;18.67;;;13.35;;
68176;SDS011;56478;50.982;7.032;2024-03-08T08:28:24;20.67;;;13.93;;
68176;SDS011;56478;50.982;7.032;2024-03-08T08:30:50;16.10;;;11.45;;
68176;SDS011;56478;50.982;7.032;2024-03-08T08:33:16;17.75;;;12.80;;
68176;SDS011;56478;50.982;7.032;2024-03-08T08:35:42;17.10;;;13.40;;
68176;SDS011;56478;50.982;7.032;2024-03-08T08:38:12;19.65;;;13.48;;
68176;SDS011;56478;50.982;7.032;2024-03-08T08:40:38;17.98;;;14.05;;
68176;SDS011;56478;50.982;7.032;2024-03-08T08:43:04;17.85;;;13.00;;
68176;SDS011;56478;50.982;7.032;2024-03-08T08:45:30;18.75;;;12.32;;
68176;SDS011;56478;50.982;7.032;2024-03-08T08:47:56;11.57;;;8.90;;
68176;SDS011;56478;50.982;7.032;2024-03-08T08:50:25;16.77;;;13.32;;
68176;SDS011;56478;50.982;7.032;2024-03-08T08:52:51;14.68;;;11.57;;
68176;SDS011;56478;50.982;7.032;2024-03-08T08:55:18;16.85;;;12.50;;
68176;SDS011;56478;50.982;7.032;2024-03-08T08:57:46;15.85;;;13.15;;
68176;SDS011;56478;50.982;7.032;2024-03-08T09:00:19;18.73;;;13.98;;
68176;SDS011;56478;50.982;7.032;2024-03-08T09:02:45;15.95;;;12.23;;
68176;SDS011;56478;50.982;7.032;2024-03-08T09:05:12;18.02;;;13.07;;
68176;SDS011;56478;50.982;7.032;2024-03-08T09:07:41;20.35;;;12.65;;
68176;SDS011;56478;50.982;7.032;2024-03-08T09:10:09;18.40;;;11.90;;
68176;SDS011;56478;50.982;7.032;2024-03-08T09:12:37;13.88;;;11.07;;
68176;SDS011;56478;50.982;7.032;2024-03-08T09:15:04;13.90;;;10.48;;
68176;SDS011;56478;50.982;7.032;2024-03-08T09:17:33;15.55;;;10.70;;
68176;SDS011;56478;50.982;7.032;2024-03-08T09:19:59;14.57;;;10.73;;
68176;SDS011;56478;50.982;7.032;2024-03-08T09:22:25;15.55;;;12.57;;
68176;SDS011;56478;50.982;7.032;2024-03-08T09:24:51;18.90;;;13.10;;
68176;SDS011;56478;50.982;7.032;2024-03-08T09:27:17;15.93;;;11.80;;
68176;SDS011;56478;50.982;7.032;2024-03-08T09:29:43;13.93;;;11.65;;
68176;SDS011;56478;50.982;7.032;2024-03-08T09:32:09;17.67;;;11.52;;
68176;SDS011;56478;50.982;7.032;2024-03-08T09:34:37;16.73;;;11.55;;
68176;SDS011;56478;50.982;7.032;2024-03-08T09:37:02;15.70;;;11.52;;
68176;SDS011;56478;50.982;7.032;2024-03-08T09:39:29;14.20;;;12.18;;
68176;SDS011;56478;50.982;7.032;2024-03-08T09:41:55;13.48;;;11.43;;
68176;SDS011;56478;50.982;7.032;2024-03-08T09:44:21;16.40;;;11.88;;
68176;SDS011;56478;50.982;7.032;2024-03-08T09:46:48;14.90;;;11.68;;
68176;SDS011;56478;50.982;7.032;2024-03-08T09:51:42;15.13;;;10.95;;
68176;SDS011;56478;50.982;7.032;2024-03-08T09:54:08;16.05;;;11.30;;
68176;SDS011;56478;50.982;7.032;2024-03-08T09:56:36;15.55;;;11.32;;
68176;SDS011;56478;50.982;7.032;2024-03-08T09:59:03;15.15;;;10.82;;
68176;SDS011;56478;50.982;7.032;2024-03-08T10:02:01;13.90;;;11.65;;
68176;SDS011;56478;50.982;7.032;2024-03-08T10:04:28;12.32;;;10.30;;
68176;SDS011;56478;50.982;7.032;2024-03-08T10:07:00;12.35;;;11.05;;
68176;SDS011;56478;50.982;7.032;2024-03-08T10:09:26;12.68;;;10.90;;
68176;SDS011;56478;50.982;7.032;2024-03-08T10:11:55;15.90;;;11.38;;
68176;SDS011;56478;50.982;7.032;2024-03-08T10:14:27;13.77;;;11.23;;
68176;SDS011;56478;50.982;7.032;2024-03-08T10:19:19;11.68;;;9.25;;
68176;SDS011;56478;50.982;7.032;2024-03-08T10:21:48;14.20;;;11.02;;
68176;SDS011;56478;50.982;7.032;2024-03-08T10:24:15;13.18;;;10.88;;
68176;SDS011;56478;50.982;7.032;2024-03-08T10:26:41;13.55;;;11.07;;
68176;SDS011;56478;50.982;7.032;2024-03-08T10:29:09;15.52;;;11.43;;
68176;SDS011;56478;50.982;7.032;2024-03-08T10:31:35;16.17;;;11.65;;
68176;SDS011;56478;50.982;7.032;2024-03-08T10:34:01;13.18;;;10.80;;
68176;SDS011;56478;50.982;7.032;2024-03-08T10:36:30;14.77;;;11.45;;
68176;SDS011;56478;50.982;7.032;2024-03-08T10:38:57;12.75;;;10.23;;
68176;SDS011;56478;50.982;7.032;2024-03-08T10:41:27;12.18;;;10.75;;
68176;SDS011;56478;50.982;7.032;2024-03-08T10:49:02;13.63;;;10.40;;
68176;SDS011;56478;50.982;7.032;2024-03-08T10:51:32;11.55;;;9.30;;
68176;SDS011;56478;50.982;7.032;2024-03-08T10:53:59;13.00;;;10.48;;
68176;SDS011;56478;50.982;7.032;2024-03-08T10:56:29;12.18;;;9.70;;
68176;SDS011;56478;50.982;7.032;2024-03-08T10:58:55;12.00;;;10.10;;
68176;SDS011;56478;50.982;7.032;2024-03-08T11:01:21;12.00;;;9.40;;
68176;SDS011;56478;50.982;7.032;2024-03-08T11:03:47;10.43;;;8.45;;
68176;SDS011;56478;50.982;7.032;2024-03-08T11:14:46;8.48;;;6.32;;
68176;SDS011;56478;50.982;7.032;2024-03-08T11:17:20;12.55;;;8.55;;
68176;SDS011;56478;50.982;7.032;2024-03-08T11:20:12;10.82;;;8.80;;
68176;SDS011;56478;50.982;7.032;2024-03-08T11:22:47;9.63;;;6.93;;
68176;SDS011;56478;50.982;7.032;2024-03-08T11:25:35;9.93;;;7.57;;
68176;SDS011;56478;50.982;7.032;2024-03-08T11:28:13;9.25;;;7.50;;
68176;SDS011;56478;50.982;7.032;2024-03-08T11:30:45;8.60;;;7.10;;
68176;SDS011;56478;50.982;7.032;2024-03-08T11:33:13;10.88;;;9.18;;
68176;SDS011;56478;50.982;7.032;2024-03-08T11:35:41;10.40;;;8.00;;
68176;SDS011;56478;50.982;7.032;2024-03-08T11:38:11;9.75;;;7.63;;
68176;SDS011;56478;50.982;7.032;2024-03-08T11:40:38;7.28;;;5.85;;
68176;SDS011;56478;50.982;7.032;2024-03-08T11:43:05;8.80;;;7.28;;
68176;SDS011;56478;50.982;7.032;2024-03-08T11:45:33;8.73;;;6.75;;
68176;SDS011;56478;50.982;7.032;2024-03-08T11:50:28;9.18;;;6.00;;
68176;SDS011;56478;50.982;7.032;2024-03-08T11:53:00;8.95;;;7.30;;
68176;SDS011;56478;50.982;7.032;2024-03-08T11:55:28;10.57;;;6.50;;
68176;SDS011;56478;50.982;7.032;2024-03-08T11:58:03;5.60;;;5.00;;
68176;SDS011;56478;50.982;7.032;2024-03-08T12:00:33;11.43;;;7.82;;
68176;SDS011;56478;50.982;7.032;2024-03-08T12:03:09;7.90;;;5.32;;
68176;SDS011;56478;50.982;7.032;2024-03-08T12:05:35;9.32;;;7.60;;
68176;SDS011;56478;50.982;7.032;2024-03-08T12:08:02;7.45;;;5.88;;
68176;SDS011;56478;50.982;7.032;2024-03-08T12:10:30;9.93;;;6.88;;
68176;SDS011;56478;50.982;7.032;2024-03-08T12:12:57;9.93;;;8.05;;
68176;SDS011;56478;50.982;7.032;2024-03-08T12:15:28;9.75;;;7.70;;
68176;SDS011;56478;50.982;7.032;2024-03-08T12:17:54;6.90;;;5.63;;
68176;SDS011;56478;50.982;7.032;2024-03-08T12:20:22;8.65;;;6.65;;
68176;SDS011;56478;50.982;7.032;2024-03-08T12:23:01;9.52;;;7.47;;
68176;SDS011;56478;50.982;7.032;2024-03-08T12:25:32;10.15;;;7.65;;
68176;SDS011;56478;50.982;7.032;2024-03-08T12:28:11;9.68;;;7.97;;
68176;SDS011;56478;50.982;7.032;2024-03-08T12:30:46;10.52;;;7.70;;
68176;SDS011;56478;50.982;7.032;2024-03-08T12:33:13;8.68;;;6.72;;
68176;SDS011;56478;50.982;7.032;2024-03-08T12:35:39;9.75;;;7.65;;
68176;SDS011;56478;50.982;7.032;2024-03-08T12:38:04;15.57;;;7.70;;
68176;SDS011;56478;50.982;7.032;2024-03-08T12:40:33;8.98;;;6.60;;
68176;SDS011;56478;50.982;7.032;2024-03-08T12:43:01;9.75;;;7.90;;
68176;SDS011;56478;50.982;7.032;2024-03-08T12:45:28;11.48;;;8.10;;
68176;SDS011;56478;50.982;7.032;2024-03-08T12:47:54;10.13;;;7.57;;
68176;SDS011;56478;50.982;7.032;2024-03-08T12:50:23;8.05;;;6.85;;
68176;SDS011;56478;50.982;7.032;2024-03-08T12:52:51;10.27;;;7.18;;
68176;SDS011;56478;50.982;7.032;2024-03-08T12:55:18;13.82;;;7.75;;
68176;SDS011;56478;50.982;7.032;2024-03-08T12:57:44;9.57;;;7.72;;
68176;SDS011;56478;50.982;7.032;2024-03-08T13:00:12;8.80;;;6.97;;
68176;SDS011;56478;50.982;7.032;2024-03-08T13:02:44;8.57;;;7.40;;
68176;SDS011;56478;50.982;7.032;2024-03-08T13:05:10;6.90;;;5.30;;
68176;SDS011;56478;50.982;7.032;2024-03-08T13:07:39;7.82;;;6.32;;
68176;SDS011;56478;50.982;7.032;2024-03-08T13:10:05;8.93;;;7.03;;
68176;SDS011;56478;50.982;7.032;2024-03-08T13:12:32;8.52;;;7.13;;
68176;SDS011;56478;50.982;7.032;2024-03-08T13:15:01;6.57;;;5.90;;
68176;SDS011;56478;50.982;7.032;2024-03-08T13:17:26;9.88;;;6.15;;
68176;SDS011;56478;50.982;7.032;2024-03-08T13:19:54;7.35;;;5.85;;
68176;SDS011;56478;50.982;7.032;2024-03-08T13:22:22;10.15;;;6.20;;
68176;SDS011;56478;50.982;7.032;2024-03-08T13:24:50;8.68;;;6.97;;
68176;SDS011;56478;50.982;7.032;2024-03-08T13:27:17;8.25;;;6.88;;
68176;SDS011;56478;50.982;7.032;2024-03-08T13:29:47;9.45;;;5.35;;
68176;SDS011;56478;50.982;7.032;2024-03-08T13:32:16;8.77;;;6.95;;
68176;SDS011;56478;50.982;7.032;2024-03-08T13:34:45;9.10;;;7.40;;
68176;SDS011;56478;50.982;7.032;2024-03-08T13:37:16;7.75;;;6.55;;
68176;SDS011;56478;50.982;7.032;2024-03-08T13:39:42;8.95;;;6.45;;
68176;SDS011;56478;50.982;7.032;2024-03-08T13:42:11;7.78;;;6.13;;
68176;SDS011;56478;50.982;7.032;2024-03-08T13:44:47;8.48;;;6.25;;
68176;SDS011;56478;50.982;7.032;2024-03-08T13:47:16;9.65;;;6.50;;
68176;SDS011;56478;50.982;7.032;2024-03-08T13:49:42;8.20;;;7.10;;
68176;SDS011;56478;50.982;7.032;2024-03-08T13:52:09;9.32;;;6.80;;
68176;SDS011;56478;50.982;7.032;2024-03-08T13:54:36;10.00;;;7.32;;
68176;SDS011;56478;50.982;7.032;2024-03-08T13:57:03;7.87;;;6.80;;
68176;SDS011;56478;50.982;7.032;2024-03-08T13:59:30;8.75;;;7.13;;
68176;SDS011;56478;50.982;7.032;2024-03-08T14:01:58;9.77;;;7.43;;
68176;SDS011;56478;50.982;7.032;2024-03-08T14:06:53;7.30;;;5.68;;
68176;SDS011;56478;50.982;7.032;2024-03-08T14:09:23;9.05;;;6.70;;
68176;SDS011;56478;50.982;7.032;2024-03-08T14:11:50;7.30;;;5.75;;
68176;SDS011;56478;50.982;7.032;2024-03-08T14:14:20;9.95;;;8.15;;
68176;SDS011;56478;50.982;7.032;2024-03-08T14:16:48;10.23;;;7.00;;
68176;SDS011;56478;50.982;7.032;2024-03-08T14:19:18;11.25;;;8.57;;
68176;SDS011;56478;50.982;7.032;2024-03-08T14:21:44;7.68;;;6.07;;
68176;SDS011;56478;50.982;7.032;2024-03-08T14:24:10;12.30;;;8.38;;
68176;SDS011;56478;50.982;7.032;2024-03-08T14:26:36;10.65;;;8.18;;
68176;SDS011;56478;50.982;7.032;2024-03-08T14:29:04;11.02;;;8.25;;
68176;SDS011;56478;50.982;7.032;2024-03-08T14:31:30;13.25;;;8.85;;
68176;SDS011;56478;50.982;7.032;2024-03-08T14:33:57;13.43;;;9.00;;
68176;SDS011;56478;50.982;7.032;2024-03-08T14:36:24;11.32;;;8.65;;
68176;SDS011;56478;50.982;7.032;2024-03-08T14:38:51;12.77;;;9.00;;
68176;SDS011;56478;50.982;7.032;2024-03-08T14:41:18;11.82;;;8.93;;
68176;SDS011;56478;50.982;7.032;2024-03-08T14:43:43;13.20;;;9.23;;
68176;SDS011;56478;50.982;7.032;2024-03-08T14:46:18;15.55;;;10.70;;
68176;SDS011;56478;50.982;7.032;2024-03-08T14:48:48;12.70;;;9.20;;
68176;SDS011;56478;50.982;7.032;2024-03-08T14:51:17;11.40;;;9.13;;
68176;SDS011;56478;50.982;7.032;2024-03-08T14:53:47;14.18;;;9.32;;
68176;SDS011;56478;50.982;7.032;2024-03-08T14:56:14;12.75;;;8.95;;
68176;SDS011;56478;50.982;7.032;2024-03-08T14:58:44;13.20;;;9.32;;
68176;SDS011;56478;50.982;7.032;2024-03-08T15:01:15;12.52;;;8.68;;
68176;SDS011;56478;50.982;7.032;2024-03-08T15:03:41;12.68;;;7.28;;
68176;SDS011;56478;50.982;7.032;2024-03-08T15:06:10;13.65;;;8.88;;
68176;SDS011;56478;50.982;7.032;2024-03-08T15:08:37;11.20;;;8.20;;